sensor_id;sensor_type;location;lat;lon;timestamp;pressure;altitude;pressure_sealevel;temperature;humidity
51053;BME280;37093;37.716;-122.060;2022-07-05T00:02:14;99801.82;;;28.91;31.10
51053;BME280;37093;37.716;-122.060;2022-07-05T00:04:42;99803.12;;;28.64;31.54
51053;BME280;37093;37.716;-122.060;2022-07-05T00:07:10;99800.75;;;28.76;31.68
51053;BME280;37093;37.716;-122.060;2022-07-05T00:09:39;99807.09;;;28.23;31.73
51053;BME280;37093;37.716;-122.060;2022-07-05T00:12:08;99807.76;;;28.49;31.15
51053;BME280;37093;37.716;-122.060;2022-07-05T00:14:37;99805.72;;;28.53;31.86
51053;BME280;37093;37.716;-122.060;2022-07-05T00:17:06;99807.81;;;28.53;31.44
51053;BME280;37093;37.716;-122.060;2022-07-05T00:19:34;99808.05;;;28.32;31.44
51053;BME280;37093;37.716;-122.060;2022-07-05T00:22:03;99808.18;;;28.23;32.04
51053;BME280;37093;37.716;-122.060;2022-07-05T00:24:32;99806.84;;;27.57;32.41
51053;BME280;37093;37.716;-122.060;2022-07-05T00:27:01;99813.04;;;28.23;32.22
51053;BME280;37093;37.716;-122.060;2022-07-05T00:29:31;99803.30;;;27.63;32.65
51053;BME280;37093;37.716;-122.060;2022-07-05T00:31:59;99804.58;;;27.62;33.32
51053;BME280;37093;37.716;-122.060;2022-07-05T00:34:27;99807.35;;;27.62;32.95
51053;BME280;37093;37.716;-122.060;2022-07-05T00:36:55;99807.00;;;27.50;33.21
51053;BME280;37093;37.716;-122.060;2022-07-05T00:39:25;99807.51;;;27.37;32.88
51053;BME280;37093;37.716;-122.060;2022-07-05T00:41:54;99809.64;;;27.66;32.49
51053;BME280;37093;37.716;-122.060;2022-07-05T00:44:30;99803.47;;;27.55;32.62
51053;BME280;37093;37.716;-122.060;2022-07-05T00:46:59;99802.41;;;28.00;32.04
51053;BME280;37093;37.716;-122.060;2022-07-05T00:49:27;99799.19;;;27.99;32.11
51053;BME280;37093;37.716;-122.060;2022-07-05T00:51:55;99803.81;;;27.88;32.00
51053;BME280;37093;37.716;-122.060;2022-07-05T00:54:24;99801.63;;;28.22;32.04
51053;BME280;37093;37.716;-122.060;2022-07-05T00:56:52;99799.10;;;27.80;32.18
51053;BME280;37093;37.716;-122.060;2022-07-05T00:59:22;99796.51;;;27.82;32.01
51053;BME280;37093;37.716;-122.060;2022-07-05T01:01:50;99794.01;;;27.65;32.27
51053;BME280;37093;37.716;-122.060;2022-07-05T01:04:18;99786.45;;;27.68;32.05
51053;BME280;37093;37.716;-122.060;2022-07-05T01:06:50;99783.85;;;27.40;32.57
51053;BME280;37093;37.716;-122.060;2022-07-05T01:09:20;99779.71;;;27.14;32.89
51053;BME280;37093;37.716;-122.060;2022-07-05T01:11:49;99779.19;;;27.52;32.91
51053;BME280;37093;37.716;-122.060;2022-07-05T01:14:19;99774.57;;;27.16;33.27
51053;BME280;37093;37.716;-122.060;2022-07-05T01:16:49;99774.68;;;27.37;33.08
51053;BME280;37093;37.716;-122.060;2022-07-05T01:19:17;99772.32;;;27.78;32.93
51053;BME280;37093;37.716;-122.060;2022-07-05T01:21:49;99769.02;;;27.26;33.05
51053;BME280;37093;37.716;-122.060;2022-07-05T01:24:18;99767.61;;;27.40;32.99
51053;BME280;37093;37.716;-122.060;2022-07-05T01:26:49;99765.92;;;27.58;32.97
51053;BME280;37093;37.716;-122.060;2022-07-05T01:29:18;99772.95;;;27.33;33.16
51053;BME280;37093;37.716;-122.060;2022-07-05T01:31:46;99767.19;;;27.21;33.13
51053;BME280;37093;37.716;-122.060;2022-07-05T01:34:15;99766.14;;;27.34;33.45
51053;BME280;37093;37.716;-122.060;2022-07-05T01:36:43;99767.81;;;27.23;33.36
51053;BME280;37093;37.716;-122.060;2022-07-05T01:39:12;99771.32;;;27.18;33.36
51053;BME280;37093;37.716;-122.060;2022-07-05T01:41:41;99773.84;;;27.27;32.97
51053;BME280;37093;37.716;-122.060;2022-07-05T01:44:10;99773.51;;;27.37;33.38
51053;BME280;37093;37.716;-122.060;2022-07-05T01:46:39;99777.87;;;26.70;34.27
51053;BME280;37093;37.716;-122.060;2022-07-05T01:49:10;99780.90;;;26.79;34.36
51053;BME280;37093;37.716;-122.060;2022-07-05T01:51:44;99785.17;;;26.97;34.36
51053;BME280;37093;37.716;-122.060;2022-07-05T01:54:15;99788.29;;;26.95;33.94
51053;BME280;37093;37.716;-122.060;2022-07-05T01:56:44;99788.74;;;26.81;33.88
51053;BME280;37093;37.716;-122.060;2022-07-05T01:59:13;99790.24;;;27.10;33.72
51053;BME280;37093;37.716;-122.060;2022-07-05T02:01:42;99792.03;;;26.84;34.01
51053;BME280;37093;37.716;-122.060;2022-07-05T02:04:11;99798.25;;;26.93;33.82
51053;BME280;37093;37.716;-122.060;2022-07-05T02:06:40;99797.99;;;27.34;33.38
51053;BME280;37093;37.716;-122.060;2022-07-05T02:09:08;99799.64;;;27.15;33.36
51053;BME280;37093;37.716;-122.060;2022-07-05T02:11:36;99805.87;;;26.99;34.18
51053;BME280;37093;37.716;-122.060;2022-07-05T02:14:05;99806.37;;;27.36;33.52
51053;BME280;37093;37.716;-122.060;2022-07-05T02:16:34;99810.08;;;27.26;33.54
51053;BME280;37093;37.716;-122.060;2022-07-05T02:19:02;99816.09;;;27.03;34.32
51053;BME280;37093;37.716;-122.060;2022-07-05T02:21:30;99814.76;;;26.85;34.43
51053;BME280;37093;37.716;-122.060;2022-07-05T02:23:59;99818.89;;;26.74;34.05
51053;BME280;37093;37.716;-122.060;2022-07-05T02:26:27;99826.53;;;27.03;34.10
51053;BME280;37093;37.716;-122.060;2022-07-05T02:28:56;99828.13;;;27.29;33.98
51053;BME280;37093;37.716;-122.060;2022-07-05T02:31:24;99829.54;;;27.24;34.11
51053;BME280;37093;37.716;-122.060;2022-07-05T02:33:53;99828.05;;;27.05;34.03
51053;BME280;37093;37.716;-122.060;2022-07-05T02:36:22;99824.62;;;26.90;34.25
51053;BME280;37093;37.716;-122.060;2022-07-05T02:38:50;99830.06;;;26.65;34.57
51053;BME280;37093;37.716;-122.060;2022-07-05T02:41:19;99830.28;;;26.46;34.45
51053;BME280;37093;37.716;-122.060;2022-07-05T02:43:47;99828.31;;;26.54;34.75
51053;BME280;37093;37.716;-122.060;2022-07-05T02:46:15;99833.46;;;26.96;34.61
51053;BME280;37093;37.716;-122.060;2022-07-05T02:48:44;99830.00;;;26.84;34.64
51053;BME280;37093;37.716;-122.060;2022-07-05T02:51:12;99828.51;;;26.85;34.83
51053;BME280;37093;37.716;-122.060;2022-07-05T02:53:41;99826.99;;;26.44;34.56
51053;BME280;37093;37.716;-122.060;2022-07-05T02:56:09;99826.79;;;26.48;34.92
51053;BME280;37093;37.716;-122.060;2022-07-05T02:58:38;99827.55;;;26.29;35.28
51053;BME280;37093;37.716;-122.060;2022-07-05T03:01:06;99824.84;;;26.25;35.53
51053;BME280;37093;37.716;-122.060;2022-07-05T03:03:35;99824.25;;;26.12;35.50
51053;BME280;37093;37.716;-122.060;2022-07-05T03:06:03;99822.19;;;26.23;35.64
51053;BME280;37093;37.716;-122.060;2022-07-05T03:08:32;99822.47;;;26.07;36.12
51053;BME280;37093;37.716;-122.060;2022-07-05T03:11:00;99821.21;;;25.72;36.25
51053;BME280;37093;37.716;-122.060;2022-07-05T03:13:29;99828.01;;;25.47;36.91
51053;BME280;37093;37.716;-122.060;2022-07-05T03:15:57;99823.06;;;25.63;36.46
51053;BME280;37093;37.716;-122.060;2022-07-05T03:18:26;99825.23;;;25.81;36.29
51053;BME280;37093;37.716;-122.060;2022-07-05T03:20:54;99828.06;;;25.80;36.33
51053;BME280;37093;37.716;-122.060;2022-07-05T03:23:22;99827.94;;;25.45;36.37
51053;BME280;37093;37.716;-122.060;2022-07-05T03:25:55;99828.54;;;25.91;36.17
51053;BME280;37093;37.716;-122.060;2022-07-05T03:28:24;99830.98;;;25.98;35.90
51053;BME280;37093;37.716;-122.060;2022-07-05T03:30:52;99834.34;;;26.14;35.82
51053;BME280;37093;37.716;-122.060;2022-07-05T03:33:20;99833.43;;;26.09;35.56
51053;BME280;37093;37.716;-122.060;2022-07-05T03:35:49;99830.16;;;25.58;36.01
51053;BME280;37093;37.716;-122.060;2022-07-05T03:38:17;99827.13;;;25.51;36.26
51053;BME280;37093;37.716;-122.060;2022-07-05T03:40:45;99825.97;;;26.06;36.19
51053;BME280;37093;37.716;-122.060;2022-07-05T03:43:14;99823.71;;;25.81;36.29
51053;BME280;37093;37.716;-122.060;2022-07-05T03:45:42;99822.88;;;25.84;36.04
51053;BME280;37093;37.716;-122.060;2022-07-05T03:48:11;99825.82;;;25.79;36.06
51053;BME280;37093;37.716;-122.060;2022-07-05T03:50:39;99824.66;;;25.65;36.01
51053;BME280;37093;37.716;-122.060;2022-07-05T03:53:08;99825.02;;;25.73;35.87
51053;BME280;37093;37.716;-122.060;2022-07-05T03:55:36;99825.72;;;25.82;35.67
51053;BME280;37093;37.716;-122.060;2022-07-05T03:58:04;99825.27;;;26.03;35.90
51053;BME280;37093;37.716;-122.060;2022-07-05T04:00:32;99824.69;;;26.12;35.73
51053;BME280;37093;37.716;-122.060;2022-07-05T04:03:00;99827.02;;;25.95;35.74
51053;BME280;37093;37.716;-122.060;2022-07-05T04:05:28;99826.83;;;25.95;35.75
51053;BME280;37093;37.716;-122.060;2022-07-05T04:07:57;99828.12;;;25.93;35.95
51053;BME280;37093;37.716;-122.060;2022-07-05T04:10:25;99830.76;;;25.93;35.81
51053;BME280;37093;37.716;-122.060;2022-07-05T04:12:54;99832.61;;;26.17;35.92
51053;BME280;37093;37.716;-122.060;2022-07-05T04:15:23;99833.24;;;26.20;35.76
51053;BME280;37093;37.716;-122.060;2022-07-05T04:17:53;99831.58;;;25.78;35.74
51053;BME280;37093;37.716;-122.060;2022-07-05T04:20:22;99829.12;;;26.18;35.58
51053;BME280;37093;37.716;-122.060;2022-07-05T04:22:51;99829.62;;;25.99;35.64
51053;BME280;37093;37.716;-122.060;2022-07-05T04:25:20;99828.77;;;26.20;35.61
51053;BME280;37093;37.716;-122.060;2022-07-05T04:27:51;99825.70;;;25.77;35.88
51053;BME280;37093;37.716;-122.060;2022-07-05T04:30:21;99825.39;;;25.74;35.89
51053;BME280;37093;37.716;-122.060;2022-07-05T04:32:50;99826.05;;;25.73;36.10
51053;BME280;37093;37.716;-122.060;2022-07-05T04:35:19;99827.99;;;25.90;36.08
51053;BME280;37093;37.716;-122.060;2022-07-05T04:37:47;99831.95;;;25.88;36.19
51053;BME280;37093;37.716;-122.060;2022-07-05T04:40:16;99833.04;;;25.55;36.39
51053;BME280;37093;37.716;-122.060;2022-07-05T04:42:44;99837.17;;;25.74;36.74
51053;BME280;37093;37.716;-122.060;2022-07-05T04:45:12;99841.81;;;25.53;36.71
51053;BME280;37093;37.716;-122.060;2022-07-05T04:47:41;99847.29;;;25.54;36.69
51053;BME280;37093;37.716;-122.060;2022-07-05T04:50:10;99847.93;;;25.56;36.39
51053;BME280;37093;37.716;-122.060;2022-07-05T04:52:38;99855.02;;;25.91;36.44
51053;BME280;37093;37.716;-122.060;2022-07-05T04:55:07;99860.48;;;25.60;36.92
51053;BME280;37093;37.716;-122.060;2022-07-05T04:57:39;99862.02;;;25.88;36.72
51053;BME280;37093;37.716;-122.060;2022-07-05T05:00:11;99863.05;;;25.40;36.71
51053;BME280;37093;37.716;-122.060;2022-07-05T05:02:40;99864.66;;;25.66;36.75
51053;BME280;37093;37.716;-122.060;2022-07-05T05:05:09;99867.73;;;25.41;36.83
51053;BME280;37093;37.716;-122.060;2022-07-05T05:07:42;99868.60;;;25.62;36.79
51053;BME280;37093;37.716;-122.060;2022-07-05T05:10:11;99870.54;;;25.60;36.97
51053;BME280;37093;37.716;-122.060;2022-07-05T05:12:39;99876.50;;;25.33;36.99
51053;BME280;37093;37.716;-122.060;2022-07-05T05:15:08;99876.69;;;25.52;37.26
51053;BME280;37093;37.716;-122.060;2022-07-05T05:17:37;99877.48;;;25.47;37.26
51053;BME280;37093;37.716;-122.060;2022-07-05T05:20:09;99873.13;;;25.47;37.40
51053;BME280;37093;37.716;-122.060;2022-07-05T05:22:39;99869.66;;;25.69;37.55
51053;BME280;37093;37.716;-122.060;2022-07-05T05:25:09;99869.92;;;25.39;37.46
51053;BME280;37093;37.716;-122.060;2022-07-05T05:27:42;99869.39;;;25.60;37.58
51053;BME280;37093;37.716;-122.060;2022-07-05T05:30:12;99867.32;;;25.32;37.94
51053;BME280;37093;37.716;-122.060;2022-07-05T05:32:40;99865.44;;;25.54;37.81
51053;BME280;37093;37.716;-122.060;2022-07-05T05:35:09;99864.39;;;25.06;37.83
51053;BME280;37093;37.716;-122.060;2022-07-05T05:37:54;99862.10;;;25.55;37.68
51053;BME280;37093;37.716;-122.060;2022-07-05T05:40:24;99862.20;;;25.56;38.39
51053;BME280;37093;37.716;-122.060;2022-07-05T05:42:54;99860.86;;;25.58;38.30
51053;BME280;37093;37.716;-122.060;2022-07-05T05:45:23;99855.47;;;25.50;38.20
51053;BME280;37093;37.716;-122.060;2022-07-05T05:47:53;99855.31;;;25.49;37.75
51053;BME280;37093;37.716;-122.060;2022-07-05T05:50:22;99855.57;;;25.17;37.91
51053;BME280;37093;37.716;-122.060;2022-07-05T05:52:52;99855.78;;;25.48;38.06
51053;BME280;37093;37.716;-122.060;2022-07-05T05:55:22;99853.05;;;25.19;37.78
51053;BME280;37093;37.716;-122.060;2022-07-05T05:57:51;99853.79;;;25.46;38.05
51053;BME280;37093;37.716;-122.060;2022-07-05T06:00:21;99851.55;;;25.17;37.94
51053;BME280;37093;37.716;-122.060;2022-07-05T06:02:50;99852.09;;;25.20;37.84
51053;BME280;37093;37.716;-122.060;2022-07-05T06:05:19;99852.69;;;25.46;37.87
51053;BME280;37093;37.716;-122.060;2022-07-05T06:07:50;99850.88;;;25.45;37.70
51053;BME280;37093;37.716;-122.060;2022-07-05T06:10:21;99850.34;;;25.12;37.56
51053;BME280;37093;37.716;-122.060;2022-07-05T06:12:51;99847.05;;;25.40;37.71
51053;BME280;37093;37.716;-122.060;2022-07-05T06:15:20;99844.70;;;25.09;37.91
51053;BME280;37093;37.716;-122.060;2022-07-05T06:17:49;99843.94;;;25.37;37.87
51053;BME280;37093;37.716;-122.060;2022-07-05T06:20:20;99842.33;;;25.05;38.12
51053;BME280;37093;37.716;-122.060;2022-07-05T06:22:50;99842.62;;;25.54;37.73
51053;BME280;37093;37.716;-122.060;2022-07-05T06:25:19;99842.58;;;25.27;37.55
51053;BME280;37093;37.716;-122.060;2022-07-05T06:27:49;99840.86;;;25.29;37.93
51053;BME280;37093;37.716;-122.060;2022-07-05T06:30:20;99840.22;;;25.24;38.38
51053;BME280;37093;37.716;-122.060;2022-07-05T06:32:49;99841.48;;;25.24;38.23
51053;BME280;37093;37.716;-122.060;2022-07-05T06:35:18;99840.32;;;25.22;37.80
51053;BME280;37093;37.716;-122.060;2022-07-05T06:37:50;99839.84;;;25.22;38.14
51053;BME280;37093;37.716;-122.060;2022-07-05T06:40:20;99838.76;;;25.15;38.12
51053;BME280;37093;37.716;-122.060;2022-07-05T06:42:49;99834.23;;;25.16;38.32
51053;BME280;37093;37.716;-122.060;2022-07-05T06:45:18;99833.65;;;24.93;38.47
51053;BME280;37093;37.716;-122.060;2022-07-05T06:47:53;99834.33;;;24.89;38.34
51053;BME280;37093;37.716;-122.060;2022-07-05T06:50:21;99830.26;;;25.16;38.41
51053;BME280;37093;37.716;-122.060;2022-07-05T06:52:50;99830.02;;;25.17;38.18
51053;BME280;37093;37.716;-122.060;2022-07-05T06:55:19;99830.35;;;25.15;38.61
51053;BME280;37093;37.716;-122.060;2022-07-05T06:57:48;99829.38;;;25.11;38.61
51053;BME280;37093;37.716;-122.060;2022-07-05T07:01:12;99827.04;;;24.17;38.52
51053;BME280;37093;37.716;-122.060;2022-07-05T07:03:41;99819.90;;;24.21;37.17
51053;BME280;37093;37.716;-122.060;2022-07-05T07:06:10;99826.86;;;26.21;35.83
51053;BME280;37093;37.716;-122.060;2022-07-05T07:08:37;99828.69;;;26.17;35.77
51053;BME280;37093;37.716;-122.060;2022-07-05T07:11:06;99827.08;;;25.81;36.51
51053;BME280;37093;37.716;-122.060;2022-07-05T07:13:35;99826.35;;;25.62;37.22
51053;BME280;37093;37.716;-122.060;2022-07-05T07:16:04;99826.62;;;25.37;37.73
51053;BME280;37093;37.716;-122.060;2022-07-05T07:18:32;99823.61;;;25.45;37.95
51053;BME280;37093;37.716;-122.060;2022-07-05T07:21:00;99823.24;;;25.09;38.27
51053;BME280;37093;37.716;-122.060;2022-07-05T07:23:29;99820.25;;;25.25;38.50
51053;BME280;37093;37.716;-122.060;2022-07-05T07:25:58;99820.24;;;25.17;38.38
51053;BME280;37093;37.716;-122.060;2022-07-05T07:28:26;99818.92;;;25.11;38.52
51053;BME280;37093;37.716;-122.060;2022-07-05T07:30:54;99816.93;;;25.09;38.66
51053;BME280;37093;37.716;-122.060;2022-07-05T07:33:22;99817.22;;;25.05;38.87
51053;BME280;37093;37.716;-122.060;2022-07-05T07:35:51;99812.00;;;25.03;38.82
51053;BME280;37093;37.716;-122.060;2022-07-05T07:38:20;99811.01;;;25.01;38.51
51053;BME280;37093;37.716;-122.060;2022-07-05T07:40:49;99808.62;;;24.76;38.43
51053;BME280;37093;37.716;-122.060;2022-07-05T07:43:17;99808.41;;;25.01;38.65
51053;BME280;37093;37.716;-122.060;2022-07-05T07:45:45;99808.01;;;24.97;38.68
51053;BME280;37093;37.716;-122.060;2022-07-05T07:48:14;99809.89;;;24.97;38.95
51053;BME280;37093;37.716;-122.060;2022-07-05T07:50:42;99807.90;;;24.93;38.92
51053;BME280;37093;37.716;-122.060;2022-07-05T07:53:10;99803.92;;;24.95;38.83
51053;BME280;37093;37.716;-122.060;2022-07-05T07:55:39;99803.02;;;24.91;39.12
51053;BME280;37093;37.716;-122.060;2022-07-05T07:58:08;99802.21;;;24.64;39.20
51053;BME280;37093;37.716;-122.060;2022-07-05T08:00:36;99803.65;;;24.85;39.33
51053;BME280;37093;37.716;-122.060;2022-07-05T08:03:05;99803.63;;;24.88;38.90
51053;BME280;37093;37.716;-122.060;2022-07-05T08:05:33;99797.02;;;24.59;39.16
51053;BME280;37093;37.716;-122.060;2022-07-05T08:08:02;99798.38;;;24.88;38.50
51053;BME280;37093;37.716;-122.060;2022-07-05T08:10:30;99795.49;;;24.88;38.69
51053;BME280;37093;37.716;-122.060;2022-07-05T08:12:59;99792.57;;;24.87;38.62
51053;BME280;37093;37.716;-122.060;2022-07-05T08:15:28;99789.85;;;24.83;38.85
51053;BME280;37093;37.716;-122.060;2022-07-05T08:17:56;99785.87;;;24.85;38.77
51053;BME280;37093;37.716;-122.060;2022-07-05T08:20:25;99786.91;;;24.79;39.09
51053;BME280;37093;37.716;-122.060;2022-07-05T08:22:53;99790.57;;;25.04;38.82
51053;BME280;37093;37.716;-122.060;2022-07-05T08:25:22;99791.97;;;24.75;38.85
51053;BME280;37093;37.716;-122.060;2022-07-05T08:27:51;99789.54;;;24.76;39.04
51053;BME280;37093;37.716;-122.060;2022-07-05T08:30:20;99785.93;;;24.69;39.04
51053;BME280;37093;37.716;-122.060;2022-07-05T08:32:48;99782.49;;;24.72;39.30
51053;BME280;37093;37.716;-122.060;2022-07-05T08:35:16;99780.24;;;24.66;39.32
51053;BME280;37093;37.716;-122.060;2022-07-05T08:37:45;99779.69;;;24.67;39.16
51053;BME280;37093;37.716;-122.060;2022-07-05T08:40:16;99784.76;;;24.60;39.36
51053;BME280;37093;37.716;-122.060;2022-07-05T08:42:49;99785.28;;;24.79;39.62
51053;BME280;37093;37.716;-122.060;2022-07-05T08:45:19;99786.76;;;24.56;39.71
51053;BME280;37093;37.716;-122.060;2022-07-05T08:47:48;99785.56;;;24.56;39.66
51053;BME280;37093;37.716;-122.060;2022-07-05T08:50:18;99783.71;;;24.57;39.75
51053;BME280;37093;37.716;-122.060;2022-07-05T08:52:53;99780.96;;;24.58;39.75
51053;BME280;37093;37.716;-122.060;2022-07-05T08:55:22;99780.57;;;24.58;39.19
51053;BME280;37093;37.716;-122.060;2022-07-05T08:57:51;99779.21;;;24.58;39.53
51053;BME280;37093;37.716;-122.060;2022-07-05T09:00:19;99773.73;;;24.57;39.48
51053;BME280;37093;37.716;-122.060;2022-07-05T09:02:49;99768.41;;;24.82;39.51
51053;BME280;37093;37.716;-122.060;2022-07-05T09:05:19;99769.04;;;24.58;39.73
51053;BME280;37093;37.716;-122.060;2022-07-05T09:07:57;99766.92;;;24.76;39.87
51053;BME280;37093;37.716;-122.060;2022-07-05T09:10:27;99769.91;;;24.50;39.77
51053;BME280;37093;37.716;-122.060;2022-07-05T09:12:57;99769.28;;;24.49;39.86
51053;BME280;37093;37.716;-122.060;2022-07-05T09:15:25;99770.80;;;24.49;39.72
51053;BME280;37093;37.716;-122.060;2022-07-05T09:17:55;99768.62;;;24.72;39.79
51053;BME280;37093;37.716;-122.060;2022-07-05T09:20:27;99765.87;;;24.74;39.70
51053;BME280;37093;37.716;-122.060;2022-07-05T09:22:56;99761.77;;;24.54;39.70
51053;BME280;37093;37.716;-122.060;2022-07-05T09:25:27;99761.34;;;24.54;39.79
51053;BME280;37093;37.716;-122.060;2022-07-05T09:27:58;99760.93;;;24.55;39.86
51053;BME280;37093;37.716;-122.060;2022-07-05T09:30:30;99762.18;;;24.97;39.95
51053;BME280;37093;37.716;-122.060;2022-07-05T09:33:08;99758.12;;;24.74;39.82
51053;BME280;37093;37.716;-122.060;2022-07-05T09:35:38;99756.94;;;24.50;39.79
51053;BME280;37093;37.716;-122.060;2022-07-05T09:38:16;99752.82;;;24.93;39.83
51053;BME280;37093;37.716;-122.060;2022-07-05T09:40:47;99754.14;;;24.51;39.91
51053;BME280;37093;37.716;-122.060;2022-07-05T09:43:18;99754.25;;;24.55;39.85
51053;BME280;37093;37.716;-122.060;2022-07-05T09:45:57;99755.76;;;24.52;39.91
51053;BME280;37093;37.716;-122.060;2022-07-05T09:48:27;99756.18;;;24.55;39.68
51053;BME280;37093;37.716;-122.060;2022-07-05T09:51:06;99754.38;;;24.76;39.91
51053;BME280;37093;37.716;-122.060;2022-07-05T09:53:52;99752.51;;;24.79;39.71
51053;BME280;37093;37.716;-122.060;2022-07-05T09:56:21;99754.32;;;24.56;39.83
51053;BME280;37093;37.716;-122.060;2022-07-05T09:58:49;99753.43;;;24.79;39.84
51053;BME280;37093;37.716;-122.060;2022-07-05T10:01:26;99746.21;;;24.55;39.81
51053;BME280;37093;37.716;-122.060;2022-07-05T10:03:56;99744.76;;;24.79;40.10
51053;BME280;37093;37.716;-122.060;2022-07-05T10:06:25;99744.35;;;24.56;39.86
51053;BME280;37093;37.716;-122.060;2022-07-05T10:08:55;99739.92;;;24.56;39.81
51053;BME280;37093;37.716;-122.060;2022-07-05T10:11:24;99742.66;;;24.55;40.06
51053;BME280;37093;37.716;-122.060;2022-07-05T10:13:53;99747.10;;;25.00;39.84
51053;BME280;37093;37.716;-122.060;2022-07-05T10:16:23;99746.09;;;24.78;39.95
51053;BME280;37093;37.716;-122.060;2022-07-05T10:18:52;99745.07;;;24.78;39.90
51053;BME280;37093;37.716;-122.060;2022-07-05T10:21:24;99745.17;;;24.56;39.51
51053;BME280;37093;37.716;-122.060;2022-07-05T10:23:53;99743.11;;;24.79;39.84
51053;BME280;37093;37.716;-122.060;2022-07-05T10:26:23;99742.78;;;24.30;39.81
51053;BME280;37093;37.716;-122.060;2022-07-05T10:28:53;99745.01;;;24.58;39.64
51053;BME280;37093;37.716;-122.060;2022-07-05T10:31:24;99747.17;;;24.56;39.87
51053;BME280;37093;37.716;-122.060;2022-07-05T10:33:53;99751.51;;;24.77;39.97
51053;BME280;37093;37.716;-122.060;2022-07-05T10:36:23;99750.56;;;24.54;40.15
51053;BME280;37093;37.716;-122.060;2022-07-05T10:38:53;99748.36;;;24.98;40.19
51053;BME280;37093;37.716;-122.060;2022-07-05T10:41:24;99749.62;;;24.93;40.19
51053;BME280;37093;37.716;-122.060;2022-07-05T10:43:54;99751.40;;;24.75;39.80
51053;BME280;37093;37.716;-122.060;2022-07-05T10:46:34;99752.50;;;24.75;39.86
51053;BME280;37093;37.716;-122.060;2022-07-05T10:49:13;99751.57;;;24.75;40.04
51053;BME280;37093;37.716;-122.060;2022-07-05T10:51:42;99752.90;;;24.75;39.97
51053;BME280;37093;37.716;-122.060;2022-07-05T10:54:10;99754.38;;;24.54;39.66
51053;BME280;37093;37.716;-122.060;2022-07-05T10:56:39;99756.34;;;24.52;39.71
51053;BME280;37093;37.716;-122.060;2022-07-05T10:59:08;99757.26;;;24.53;39.89
51053;BME280;37093;37.716;-122.060;2022-07-05T11:01:39;99756.48;;;24.51;39.80
51053;BME280;37093;37.716;-122.060;2022-07-05T11:04:18;99759.29;;;24.75;40.02
51053;BME280;37093;37.716;-122.060;2022-07-05T11:06:46;99757.14;;;24.55;39.61
51053;BME280;37093;37.716;-122.060;2022-07-05T11:09:17;99755.97;;;24.55;40.22
51053;BME280;37093;37.716;-122.060;2022-07-05T11:11:47;99760.20;;;24.73;40.04
51053;BME280;37093;37.716;-122.060;2022-07-05T11:14:37;99760.08;;;24.75;40.12
51053;BME280;37093;37.716;-122.060;2022-07-05T11:17:22;99759.27;;;24.53;40.42
51053;BME280;37093;37.716;-122.060;2022-07-05T11:21:18;99758.28;;;24.78;40.11
51053;BME280;37093;37.716;-122.060;2022-07-05T11:23:46;99757.44;;;24.81;40.24
51053;BME280;37093;37.716;-122.060;2022-07-05T11:26:18;99756.39;;;24.59;39.86
51053;BME280;37093;37.716;-122.060;2022-07-05T11:28:50;99755.94;;;24.82;40.27
51053;BME280;37093;37.716;-122.060;2022-07-05T11:31:40;99752.08;;;25.01;40.12
51053;BME280;37093;37.716;-122.060;2022-07-05T11:34:13;99750.44;;;25.00;40.27
51053;BME280;37093;37.716;-122.060;2022-07-05T11:36:41;99751.30;;;24.55;40.47
51053;BME280;37093;37.716;-122.060;2022-07-05T11:39:12;99748.48;;;24.53;40.60
51053;BME280;37093;37.716;-122.060;2022-07-05T11:41:43;99746.91;;;24.52;40.67
51053;BME280;37093;37.716;-122.060;2022-07-05T11:44:11;99747.44;;;24.51;40.40
51053;BME280;37093;37.716;-122.060;2022-07-05T11:46:41;99750.82;;;24.52;40.77
51053;BME280;37093;37.716;-122.060;2022-07-05T11:49:10;99753.45;;;24.50;40.53
51053;BME280;37093;37.716;-122.060;2022-07-05T11:51:38;99750.95;;;24.74;40.52
51053;BME280;37093;37.716;-122.060;2022-07-05T11:54:10;99749.90;;;24.51;40.56
51053;BME280;37093;37.716;-122.060;2022-07-05T11:56:38;99750.25;;;24.55;40.38
51053;BME280;37093;37.716;-122.060;2022-07-05T11:59:18;99749.81;;;24.49;40.52
51053;BME280;37093;37.716;-122.060;2022-07-05T12:01:47;99751.00;;;24.57;40.76
51053;BME280;37093;37.716;-122.060;2022-07-05T12:04:22;99750.99;;;24.78;40.58
51053;BME280;37093;37.716;-122.060;2022-07-05T12:06:50;99750.67;;;24.55;40.62
51053;BME280;37093;37.716;-122.060;2022-07-05T12:09:24;99750.79;;;24.55;40.83
51053;BME280;37093;37.716;-122.060;2022-07-05T12:11:52;99748.19;;;24.55;40.59
51053;BME280;37093;37.716;-122.060;2022-07-05T12:14:21;99749.22;;;24.54;40.77
51053;BME280;37093;37.716;-122.060;2022-07-05T12:17:11;99750.13;;;24.55;40.89
51053;BME280;37093;37.716;-122.060;2022-07-05T12:19:39;99748.17;;;24.98;40.94
51053;BME280;37093;37.716;-122.060;2022-07-05T12:22:08;99750.56;;;24.97;41.15
51053;BME280;37093;37.716;-122.060;2022-07-05T12:24:37;99748.03;;;24.53;41.03
51053;BME280;37093;37.716;-122.060;2022-07-05T12:27:06;99749.77;;;25.00;40.96
51053;BME280;37093;37.716;-122.060;2022-07-05T12:29:38;99749.25;;;25.00;40.98
51053;BME280;37093;37.716;-122.060;2022-07-05T12:32:06;99752.75;;;24.57;40.89
51053;BME280;37093;37.716;-122.060;2022-07-05T12:34:35;99753.48;;;24.59;40.95
51053;BME280;37093;37.716;-122.060;2022-07-05T12:37:03;99754.89;;;24.59;40.87
51053;BME280;37093;37.716;-122.060;2022-07-05T12:39:31;99752.52;;;24.81;40.91
51053;BME280;37093;37.716;-122.060;2022-07-05T12:42:00;99756.45;;;24.63;40.76
51053;BME280;37093;37.716;-122.060;2022-07-05T12:44:28;99758.38;;;24.65;40.60
51053;BME280;37093;37.716;-122.060;2022-07-05T12:47:04;99758.58;;;24.68;40.71